sensor_id;sensor_type;location;lat;lon;timestamp;temperature;humidity
33067;DHT22;19428;49.024;8.366;2024-01-25T00:01:17;11.00;99.90
33067;DHT22;19428;49.024;8.366;2024-01-25T00:03:43;11.00;99.90
33067;DHT22;19428;49.024;8.366;2024-01-25T00:06:08;11.00;99.90
33067;DHT22;19428;49.024;8.366;2024-01-25T00:08:34;11.00;99.90
33067;DHT22;19428;49.024;8.366;2024-01-25T00:11:03;11.00;99.90
33067;DHT22;19428;49.024;8.366;2024-01-25T00:13:31;11.00;99.90
33067;DHT22;19428;49.024;8.366;2024-01-25T00:15:56;11.00;99.90
33067;DHT22;19428;49.024;8.366;2024-01-25T00:18:23;11.00;99.90
33067;DHT22;19428;49.024;8.366;2024-01-25T00:20:49;11.00;99.90
33067;DHT22;19428;49.024;8.366;2024-01-25T00:23:21;11.00;99.90
33067;DHT22;19428;49.024;8.366;2024-01-25T00:25:46;11.00;99.90
33067;DHT22;19428;49.024;8.366;2024-01-25T00:28:12;10.90;99.90
33067;DHT22;19428;49.024;8.366;2024-01-25T00:30:42;10.90;99.90
33067;DHT22;19428;49.024;8.366;2024-01-25T00:33:08;10.90;99.90
33067;DHT22;19428;49.024;8.366;2024-01-25T00:35:34;11.00;99.90
33067;DHT22;19428;49.024;8.366;2024-01-25T00:37:59;10.90;99.90
33067;DHT22;19428;49.024;8.366;2024-01-25T00:40:26;10.90;99.90
33067;DHT22;19428;49.024;8.366;2024-01-25T00:42:52;10.90;99.90
33067;DHT22;19428;49.024;8.366;2024-01-25T00:45:19;10.90;99.90
33067;DHT22;19428;49.024;8.366;2024-01-25T00:47:45;11.00;99.90
33067;DHT22;19428;49.024;8.366;2024-01-25T00:50:11;10.90;99.90
33067;DHT22;19428;49.024;8.366;2024-01-25T00:52:39;11.00;99.90
33067;DHT22;19428;49.024;8.366;2024-01-25T00:55:08;10.90;99.90
33067;DHT22;19428;49.024;8.366;2024-01-25T00:57:34;10.90;99.90
33067;DHT22;19428;49.024;8.366;2024-01-25T01:00:00;10.90;99.90
33067;DHT22;19428;49.024;8.366;2024-01-25T01:02:27;10.90;99.90
33067;DHT22;19428;49.024;8.366;2024-01-25T01:04:59;10.90;99.90
33067;DHT22;19428;49.024;8.366;2024-01-25T01:07:25;10.90;99.90
33067;DHT22;19428;49.024;8.366;2024-01-25T01:09:52;10.90;99.90
33067;DHT22;19428;49.024;8.366;2024-01-25T01:12:20;10.90;99.90
33067;DHT22;19428;49.024;8.366;2024-01-25T01:14:45;10.90;99.90
33067;DHT22;19428;49.024;8.366;2024-01-25T01:17:11;10.90;99.90
33067;DHT22;19428;49.024;8.366;2024-01-25T01:19:37;10.90;99.90
33067;DHT22;19428;49.024;8.366;2024-01-25T01:22:02;10.90;99.90
33067;DHT22;19428;49.024;8.366;2024-01-25T01:24:28;10.80;99.90
33067;DHT22;19428;49.024;8.366;2024-01-25T01:26:54;10.90;99.90
33067;DHT22;19428;49.024;8.366;2024-01-25T01:29:19;10.90;99.90
33067;DHT22;19428;49.024;8.366;2024-01-25T01:31:47;10.90;99.90
33067;DHT22;19428;49.024;8.366;2024-01-25T01:34:13;10.90;99.90
33067;DHT22;19428;49.024;8.366;2024-01-25T01:36:39;10.90;99.90
33067;DHT22;19428;49.024;8.366;2024-01-25T01:39:04;10.90;99.90
33067;DHT22;19428;49.024;8.366;2024-01-25T01:41:32;10.90;99.90
33067;DHT22;19428;49.024;8.366;2024-01-25T01:44:00;10.90;99.90
33067;DHT22;19428;49.024;8.366;2024-01-25T01:46:36;10.90;99.90
33067;DHT22;19428;49.024;8.366;2024-01-25T01:49:06;10.90;99.90
33067;DHT22;19428;49.024;8.366;2024-01-25T01:51:35;10.90;99.90
33067;DHT22;19428;49.024;8.366;2024-01-25T01:54:02;10.90;99.90
33067;DHT22;19428;49.024;8.366;2024-01-25T01:56:31;10.80;99.90
33067;DHT22;19428;49.024;8.366;2024-01-25T01:58:58;10.80;99.90
33067;DHT22;19428;49.024;8.366;2024-01-25T02:01:26;10.80;99.90
33067;DHT22;19428;49.024;8.366;2024-01-25T02:03:52;10.70;99.90
33067;DHT22;19428;49.024;8.366;2024-01-25T02:06:18;10.70;99.90
33067;DHT22;19428;49.024;8.366;2024-01-25T02:08:48;10.80;99.90
33067;DHT22;19428;49.024;8.366;2024-01-25T02:11:16;10.80;99.90
33067;DHT22;19428;49.024;8.366;2024-01-25T02:13:42;10.90;99.90
33067;DHT22;19428;49.024;8.366;2024-01-25T02:16:08;10.80;99.90
33067;DHT22;19428;49.024;8.366;2024-01-25T02:18:36;10.70;99.90
33067;DHT22;19428;49.024;8.366;2024-01-25T02:21:02;10.70;99.90
33067;DHT22;19428;49.024;8.366;2024-01-25T02:23:38;10.70;99.90
33067;DHT22;19428;49.024;8.366;2024-01-25T02:26:14;10.70;99.90
33067;DHT22;19428;49.024;8.366;2024-01-25T02:28:43;10.70;99.90
33067;DHT22;19428;49.024;8.366;2024-01-25T02:31:09;10.90;99.90
33067;DHT22;19428;49.024;8.366;2024-01-25T02:33:37;10.80;99.90
33067;DHT22;19428;49.024;8.366;2024-01-25T02:36:03;10.80;99.90
33067;DHT22;19428;49.024;8.366;2024-01-25T02:38:29;10.80;99.90
33067;DHT22;19428;49.024;8.366;2024-01-25T02:40:55;10.80;99.90
33067;DHT22;19428;49.024;8.366;2024-01-25T02:43:30;10.70;99.90
33067;DHT22;19428;49.024;8.366;2024-01-25T02:45:56;10.80;99.90
33067;DHT22;19428;49.024;8.366;2024-01-25T02:48:27;10.80;99.90
33067;DHT22;19428;49.024;8.366;2024-01-25T02:51:01;10.80;99.90
33067;DHT22;19428;49.024;8.366;2024-01-25T02:53:27;10.70;99.90
33067;DHT22;19428;49.024;8.366;2024-01-25T02:55:53;10.80;99.90
33067;DHT22;19428;49.024;8.366;2024-01-25T02:58:23;10.80;99.90
33067;DHT22;19428;49.024;8.366;2024-01-25T03:00:57;10.60;99.90
33067;DHT22;19428;49.024;8.366;2024-01-25T03:03:35;10.70;99.90
33067;DHT22;19428;49.024;8.366;2024-01-25T03:06:10;10.60;99.90
33067;DHT22;19428;49.024;8.366;2024-01-25T03:11:47;10.70;99.90
33067;DHT22;19428;49.024;8.366;2024-01-25T03:14:25;10.70;99.90
33067;DHT22;19428;49.024;8.366;2024-01-25T03:16:59;10.70;99.90
33067;DHT22;19428;49.024;8.366;2024-01-25T03:19:56;10.70;99.90
33067;DHT22;19428;49.024;8.366;2024-01-25T03:22:29;10.80;99.90
33067;DHT22;19428;49.024;8.366;2024-01-25T03:25:01;10.80;99.90
33067;DHT22;19428;49.024;8.366;2024-01-25T03:27:36;10.70;99.90
33067;DHT22;19428;49.024;8.366;2024-01-25T03:30:14;10.70;99.90
33067;DHT22;19428;49.024;8.366;2024-01-25T03:33:01;10.70;99.90
33067;DHT22;19428;49.024;8.366;2024-01-25T03:35:30;10.60;99.90
33067;DHT22;19428;49.024;8.366;2024-01-25T03:37:59;10.60;99.90
33067;DHT22;19428;49.024;8.366;2024-01-25T03:40:42;10.60;99.90
33067;DHT22;19428;49.024;8.366;2024-01-25T03:43:15;10.60;99.90
33067;DHT22;19428;49.024;8.366;2024-01-25T03:45:43;10.60;99.90
33067;DHT22;19428;49.024;8.366;2024-01-25T03:48:11;10.60;99.90
33067;DHT22;19428;49.024;8.366;2024-01-25T03:50:41;10.60;99.90
33067;DHT22;19428;49.024;8.366;2024-01-25T03:53:07;10.50;99.90
33067;DHT22;19428;49.024;8.366;2024-01-25T03:55:38;10.60;99.90
33067;DHT22;19428;49.024;8.366;2024-01-25T03:58:08;10.60;99.90
33067;DHT22;19428;49.024;8.366;2024-01-25T04:00:34;10.60;99.90
33067;DHT22;19428;49.024;8.366;2024-01-25T04:03:00;10.60;99.90
33067;DHT22;19428;49.024;8.366;2024-01-25T04:05:25;10.50;99.90
33067;DHT22;19428;49.024;8.366;2024-01-25T04:07:52;10.50;99.90
33067;DHT22;19428;49.024;8.366;2024-01-25T04:10:20;10.50;99.90
33067;DHT22;19428;49.024;8.366;2024-01-25T04:13:04;10.40;99.90
33067;DHT22;19428;49.024;8.366;2024-01-25T04:15:31;10.40;99.90
33067;DHT22;19428;49.024;8.366;2024-01-25T04:17:59;10.50;99.90
33067;DHT22;19428;49.024;8.366;2024-01-25T04:20:31;10.50;99.90
33067;DHT22;19428;49.024;8.366;2024-01-25T04:22:59;10.50;99.90
33067;DHT22;19428;49.024;8.366;2024-01-25T04:25:25;10.50;99.90
33067;DHT22;19428;49.024;8.366;2024-01-25T04:27:50;10.50;99.90
33067;DHT22;19428;49.024;8.366;2024-01-25T04:30:16;10.50;99.90
33067;DHT22;19428;49.024;8.366;2024-01-25T04:32:45;10.50;99.90
33067;DHT22;19428;49.024;8.366;2024-01-25T04:35:11;10.50;99.90
33067;DHT22;19428;49.024;8.366;2024-01-25T04:37:37;10.40;99.90
33067;DHT22;19428;49.024;8.366;2024-01-25T04:40:03;10.40;99.90
33067;DHT22;19428;49.024;8.366;2024-01-25T04:42:30;10.30;99.90
33067;DHT22;19428;49.024;8.366;2024-01-25T04:44:56;10.40;99.90
33067;DHT22;19428;49.024;8.366;2024-01-25T04:47:22;10.30;99.90
33067;DHT22;19428;49.024;8.366;2024-01-25T04:49:47;10.40;99.90
33067;DHT22;19428;49.024;8.366;2024-01-25T04:52:15;10.40;99.90
33067;DHT22;19428;49.024;8.366;2024-01-25T04:54:45;10.30;99.90
33067;DHT22;19428;49.024;8.366;2024-01-25T04:57:11;10.30;99.90
33067;DHT22;19428;49.024;8.366;2024-01-25T04:59:40;10.20;99.90
33067;DHT22;19428;49.024;8.366;2024-01-25T05:02:05;10.20;99.90
33067;DHT22;19428;49.024;8.366;2024-01-25T05:04:33;10.20;99.90
33067;DHT22;19428;49.024;8.366;2024-01-25T05:07:02;10.10;99.90
33067;DHT22;19428;49.024;8.366;2024-01-25T05:09:28;10.10;99.90
33067;DHT22;19428;49.024;8.366;2024-01-25T05:11:53;10.00;99.90
33067;DHT22;19428;49.024;8.366;2024-01-25T05:14:24;9.90;99.90
33067;DHT22;19428;49.024;8.366;2024-01-25T05:16:56;9.90;99.90
33067;DHT22;19428;49.024;8.366;2024-01-25T05:19:22;9.80;99.90
33067;DHT22;19428;49.024;8.366;2024-01-25T05:21:48;9.70;99.90
33067;DHT22;19428;49.024;8.366;2024-01-25T05:24:13;9.60;99.90
33067;DHT22;19428;49.024;8.366;2024-01-25T05:26:41;9.70;99.90
33067;DHT22;19428;49.024;8.366;2024-01-25T05:29:07;9.60;99.90
33067;DHT22;19428;49.024;8.366;2024-01-25T05:31:33;9.50;99.90
33067;DHT22;19428;49.024;8.366;2024-01-25T05:33:59;9.50;99.90
33067;DHT22;19428;49.024;8.366;2024-01-25T05:36:25;9.50;99.90
33067;DHT22;19428;49.024;8.366;2024-01-25T05:38:51;9.40;99.90
33067;DHT22;19428;49.024;8.366;2024-01-25T05:41:18;9.50;99.90
33067;DHT22;19428;49.024;8.366;2024-01-25T05:43:46;9.30;99.90
33067;DHT22;19428;49.024;8.366;2024-01-25T05:46:12;9.40;99.90
33067;DHT22;19428;49.024;8.366;2024-01-25T05:48:37;9.50;99.90
33067;DHT22;19428;49.024;8.366;2024-01-25T05:51:03;9.30;99.90
33067;DHT22;19428;49.024;8.366;2024-01-25T05:53:29;9.20;99.90
33067;DHT22;19428;49.024;8.366;2024-01-25T05:55:55;9.00;99.90
33067;DHT22;19428;49.024;8.366;2024-01-25T05:58:20;8.90;99.90
33067;DHT22;19428;49.024;8.366;2024-01-25T06:00:46;8.80;99.90
33067;DHT22;19428;49.024;8.366;2024-01-25T06:03:11;8.80;99.90
33067;DHT22;19428;49.024;8.366;2024-01-25T06:05:37;8.80;99.90
33067;DHT22;19428;49.024;8.366;2024-01-25T06:08:03;9.00;99.90
33067;DHT22;19428;49.024;8.366;2024-01-25T06:10:28;9.10;99.90
33067;DHT22;19428;49.024;8.366;2024-01-25T06:12:54;9.00;99.90
33067;DHT22;19428;49.024;8.366;2024-01-25T06:15:19;8.90;99.90
33067;DHT22;19428;49.024;8.366;2024-01-25T06:17:47;8.80;99.90
33067;DHT22;19428;49.024;8.366;2024-01-25T06:20:12;9.00;99.90
33067;DHT22;19428;49.024;8.366;2024-01-25T06:22:38;8.90;99.90
33067;DHT22;19428;49.024;8.366;2024-01-25T06:25:04;8.90;99.90
33067;DHT22;19428;49.024;8.366;2024-01-25T06:27:29;8.80;99.90
33067;DHT22;19428;49.024;8.366;2024-01-25T06:29:55;8.70;99.90
33067;DHT22;19428;49.024;8.366;2024-01-25T06:32:21;8.70;99.90
33067;DHT22;19428;49.024;8.366;2024-01-25T06:34:46;8.60;99.90
33067;DHT22;19428;49.024;8.366;2024-01-25T06:37:12;8.60;99.90
33067;DHT22;19428;49.024;8.366;2024-01-25T06:39:40;8.60;99.90
33067;DHT22;19428;49.024;8.366;2024-01-25T06:42:06;8.70;99.90
33067;DHT22;19428;49.024;8.366;2024-01-25T06:44:32;8.70;99.90
33067;DHT22;19428;49.024;8.366;2024-01-25T06:46:57;8.70;99.90
33067;DHT22;19428;49.024;8.366;2024-01-25T06:49:23;8.70;99.90
33067;DHT22;19428;49.024;8.366;2024-01-25T06:51:49;8.60;99.90
33067;DHT22;19428;49.024;8.366;2024-01-25T06:54:14;8.70;99.90
33067;DHT22;19428;49.024;8.366;2024-01-25T06:56:40;8.70;99.90
33067;DHT22;19428;49.024;8.366;2024-01-25T06:59:05;8.70;99.90
33067;DHT22;19428;49.024;8.366;2024-01-25T07:01:31;8.70;99.90
33067;DHT22;19428;49.024;8.366;2024-01-25T07:03:58;8.70;99.90
33067;DHT22;19428;49.024;8.366;2024-01-25T07:06:23;8.70;99.90
33067;DHT22;19428;49.024;8.366;2024-01-25T07:08:49;8.70;99.90
33067;DHT22;19428;49.024;8.366;2024-01-25T07:11:15;8.70;99.90
33067;DHT22;19428;49.024;8.366;2024-01-25T07:13:42;8.60;99.90
33067;DHT22;19428;49.024;8.366;2024-01-25T07:16:07;8.60;99.90
33067;DHT22;19428;49.024;8.366;2024-01-25T07:18:33;8.50;99.90
33067;DHT22;19428;49.024;8.366;2024-01-25T07:20:59;8.50;99.90
33067;DHT22;19428;49.024;8.366;2024-01-25T07:23:25;8.40;99.90
33067;DHT22;19428;49.024;8.366;2024-01-25T07:25:52;8.40;99.90
33067;DHT22;19428;49.024;8.366;2024-01-25T07:28:21;8.40;99.90
33067;DHT22;19428;49.024;8.366;2024-01-25T07:30:47;8.40;99.90
33067;DHT22;19428;49.024;8.366;2024-01-25T07:33:13;8.40;99.90
33067;DHT22;19428;49.024;8.366;2024-01-25T07:35:39;8.40;99.90
33067;DHT22;19428;49.024;8.366;2024-01-25T07:38:16;8.30;99.90
33067;DHT22;19428;49.024;8.366;2024-01-25T07:40:42;8.30;99.90
33067;DHT22;19428;49.024;8.366;2024-01-25T07:43:08;8.30;99.90
33067;DHT22;19428;49.024;8.366;2024-01-25T07:45:35;8.40;99.90
33067;DHT22;19428;49.024;8.366;2024-01-25T07:48:00;8.40;99.90
33067;DHT22;19428;49.024;8.366;2024-01-25T07:50:26;8.40;99.90
33067;DHT22;19428;49.024;8.366;2024-01-25T07:52:52;8.30;99.90
33067;DHT22;19428;49.024;8.366;2024-01-25T07:55:18;8.20;99.90
33067;DHT22;19428;49.024;8.366;2024-01-25T07:57:43;8.10;99.90
33067;DHT22;19428;49.024;8.366;2024-01-25T08:00:09;8.10;99.90
33067;DHT22;19428;49.024;8.366;2024-01-25T08:02:36;8.10;99.90
33067;DHT22;19428;49.024;8.366;2024-01-25T08:05:01;8.20;99.90
33067;DHT22;19428;49.024;8.366;2024-01-25T08:07:28;8.30;99.90
33067;DHT22;19428;49.024;8.366;2024-01-25T08:09:54;8.40;99.90
33067;DHT22;19428;49.024;8.366;2024-01-25T08:12:24;8.30;99.90
33067;DHT22;19428;49.024;8.366;2024-01-25T08:14:50;8.40;99.90
33067;DHT22;19428;49.024;8.366;2024-01-25T08:17:15;8.40;99.90
33067;DHT22;19428;49.024;8.366;2024-01-25T08:19:41;8.30;99.90
33067;DHT22;19428;49.024;8.366;2024-01-25T08:22:07;8.20;99.90
33067;DHT22;19428;49.024;8.366;2024-01-25T08:24:32;8.30;99.90
33067;DHT22;19428;49.024;8.366;2024-01-25T08:26:58;8.40;99.90
33067;DHT22;19428;49.024;8.366;2024-01-25T08:29:23;8.40;99.90
33067;DHT22;19428;49.024;8.366;2024-01-25T08:31:49;8.50;99.90
33067;DHT22;19428;49.024;8.366;2024-01-25T08:34:15;8.50;99.90
33067;DHT22;19428;49.024;8.366;2024-01-25T08:36:40;8.50;99.90
33067;DHT22;19428;49.024;8.366;2024-01-25T08:39:06;8.70;99.90
33067;DHT22;19428;49.024;8.366;2024-01-25T08:41:34;8.70;99.90
33067;DHT22;19428;49.024;8.366;2024-01-25T08:43:59;8.70;99.90
33067;DHT22;19428;49.024;8.366;2024-01-25T08:46:25;8.80;99.90
33067;DHT22;19428;49.024;8.366;2024-01-25T08:48:50;8.80;99.90
33067;DHT22;19428;49.024;8.366;2024-01-25T08:51:16;8.80;99.90
33067;DHT22;19428;49.024;8.366;2024-01-25T08:53:41;9.00;99.90
33067;DHT22;19428;49.024;8.366;2024-01-25T08:56:07;8.90;99.90
33067;DHT22;19428;49.024;8.366;2024-01-25T08:58:33;9.00;99.90
33067;DHT22;19428;49.024;8.366;2024-01-25T09:00:59;9.10;99.90
33067;DHT22;19428;49.024;8.366;2024-01-25T09:03:24;9.10;99.90
33067;DHT22;19428;49.024;8.366;2024-01-25T09:05:50;9.20;99.90
33067;DHT22;19428;49.024;8.366;2024-01-25T09:08:15;9.20;99.90
33067;DHT22;19428;49.024;8.366;2024-01-25T09:10:42;9.30;99.90
33067;DHT22;19428;49.024;8.366;2024-01-25T09:13:08;9.40;99.90
33067;DHT22;19428;49.024;8.366;2024-01-25T09:15:34;9.40;99.90
33067;DHT22;19428;49.024;8.366;2024-01-25T09:18:00;9.40;99.90
33067;DHT22;19428;49.024;8.366;2024-01-25T09:20:25;9.40;99.90
33067;DHT22;19428;49.024;8.366;2024-01-25T09:22:54;9.50;99.90
33067;DHT22;19428;49.024;8.366;2024-01-25T09:25:20;9.60;99.90
33067;DHT22;19428;49.024;8.366;2024-01-25T09:27:46;9.70;99.90
33067;DHT22;19428;49.024;8.366;2024-01-25T09:30:11;9.80;99.90
33067;DHT22;19428;49.024;8.366;2024-01-25T09:32:37;9.80;99.90
33067;DHT22;19428;49.024;8.366;2024-01-25T09:35:03;9.90;99.90
33067;DHT22;19428;49.024;8.366;2024-01-25T09:37:29;9.90;99.90
33067;DHT22;19428;49.024;8.366;2024-01-25T09:39:54;9.80;99.90
33067;DHT22;19428;49.024;8.366;2024-01-25T09:42:20;9.90;99.90
33067;DHT22;19428;49.024;8.366;2024-01-25T09:44:45;9.90;99.90
33067;DHT22;19428;49.024;8.366;2024-01-25T09:47:11;10.00;99.90
33067;DHT22;19428;49.024;8.366;2024-01-25T09:49:37;10.10;99.90
33067;DHT22;19428;49.024;8.366;2024-01-25T09:52:04;10.20;99.90
33067;DHT22;19428;49.024;8.366;2024-01-25T09:54:34;10.20;99.90
33067;DHT22;19428;49.024;8.366;2024-01-25T09:57:05;10.30;99.90
33067;DHT22;19428;49.024;8.366;2024-01-25T09:59:32;10.30;99.90
33067;DHT22;19428;49.024;8.366;2024-01-25T10:01:58;10.30;99.90
33067;DHT22;19428;49.024;8.366;2024-01-25T10:04:24;10.30;99.90
33067;DHT22;19428;49.024;8.366;2024-01-25T10:06:50;10.40;99.90
33067;DHT22;19428;49.024;8.366;2024-01-25T10:09:16;10.60;99.90
33067;DHT22;19428;49.024;8.366;2024-01-25T10:11:42;10.70;99.90
33067;DHT22;19428;49.024;8.366;2024-01-25T10:14:08;10.60;99.90
33067;DHT22;19428;49.024;8.366;2024-01-25T10:16:34;10.80;99.90
33067;DHT22;19428;49.024;8.366;2024-01-25T10:19:01;10.60;99.90
33067;DHT22;19428;49.024;8.366;2024-01-25T10:21:28;10.70;99.90
33067;DHT22;19428;49.024;8.366;2024-01-25T10:23:55;10.80;99.90
33067;DHT22;19428;49.024;8.366;2024-01-25T10:26:26;10.90;99.90
33067;DHT22;19428;49.024;8.366;2024-01-25T10:28:54;10.80;99.90
33067;DHT22;19428;49.024;8.366;2024-01-25T10:31:23;10.70;99.90
33067;DHT22;19428;49.024;8.366;2024-01-25T10:33:49;10.60;99.90
33067;DHT22;19428;49.024;8.366;2024-01-25T10:36:16;10.50;99.90
33067;DHT22;19428;49.024;8.366;2024-01-25T10:38:43;10.70;99.90
33067;DHT22;19428;49.024;8.366;2024-01-25T10:41:09;10.60;99.90
33067;DHT22;19428;49.024;8.366;2024-01-25T10:43:35;10.80;99.90
33067;DHT22;19428;49.024;8.366;2024-01-25T10:46:01;10.70;99.90
33067;DHT22;19428;49.024;8.366;2024-01-25T10:48:28;10.70;99.90
33067;DHT22;19428;49.024;8.366;2024-01-25T10:50:56;10.60;99.90
33067;DHT22;19428;49.024;8.366;2024-01-25T10:53:24;10.60;99.90
33067;DHT22;19428;49.024;8.366;2024-01-25T10:55:52;10.80;99.90
33067;DHT22;19428;49.024;8.366;2024-01-25T10:58:18;11.00;99.90
33067;DHT22;19428;49.024;8.366;2024-01-25T11:00:55;11.20;99.90
33067;DHT22;19428;49.024;8.366;2024-01-25T11:03:28;11.10;99.90
33067;DHT22;19428;49.024;8.366;2024-01-25T11:06:12;10.80;99.90
33067;DHT22;19428;49.024;8.366;2024-01-25T11:08:38;11.10;99.90
33067;DHT22;19428;49.024;8.366;2024-01-25T11:11:08;11.10;99.90
33067;DHT22;19428;49.024;8.366;2024-01-25T11:13:39;11.20;99.90
33067;DHT22;19428;49.024;8.366;2024-01-25T11:16:14;11.30;99.90
33067;DHT22;19428;49.024;8.366;2024-01-25T11:18:50;11.30;99.90
33067;DHT22;19428;49.024;8.366;2024-01-25T11:21:26;11.40;99.90
33067;DHT22;19428;49.024;8.366;2024-01-25T11:24:05;11.50;99.90
33067;DHT22;19428;49.024;8.366;2024-01-25T11:26:34;11.60;99.90
33067;DHT22;19428;49.024;8.366;2024-01-25T11:29:02;11.40;99.90
33067;DHT22;19428;49.024;8.366;2024-01-25T11:31:28;11.40;99.90
33067;DHT22;19428;49.024;8.366;2024-01-25T11:33:58;11.40;99.90
33067;DHT22;19428;49.024;8.366;2024-01-25T11:36:25;11.70;99.90
33067;DHT22;19428;49.024;8.366;2024-01-25T11:38:51;11.70;99.90
33067;DHT22;19428;49.024;8.366;2024-01-25T11:41:16;11.70;99.90
33067;DHT22;19428;49.024;8.366;2024-01-25T11:43:42;11.60;99.90
33067;DHT22;19428;49.024;8.366;2024-01-25T11:46:08;11.60;99.90
33067;DHT22;19428;49.024;8.366;2024-01-25T11:48:39;11.60;99.90
33067;DHT22;19428;49.024;8.366;2024-01-25T11:51:05;11.90;99.90
33067;DHT22;19428;49.024;8.366;2024-01-25T11:53:30;11.90;99.90
33067;DHT22;19428;49.024;8.366;2024-01-25T11:55:56;11.90;99.90
33067;DHT22;19428;49.024;8.366;2024-01-25T11:58:23;12.00;99.90
33067;DHT22;19428;49.024;8.366;2024-01-25T12:00:49;12.00;99.90
33067;DHT22;19428;49.024;8.366;2024-01-25T12:03:18;11.80;99.90
33067;DHT22;19428;49.024;8.366;2024-01-25T12:05:50;11.70;99.90
33067;DHT22;19428;49.024;8.366;2024-01-25T12:08:17;11.80;99.90
33067;DHT22;19428;49.024;8.366;2024-01-25T12:10:45;11.90;99.90
33067;DHT22;19428;49.024;8.366;2024-01-25T12:13:11;11.70;99.90
33067;DHT22;19428;49.024;8.366;2024-01-25T12:15:37;11.40;99.90
33067;DHT22;19428;49.024;8.366;2024-01-25T12:18:07;11.40;99.90
33067;DHT22;19428;49.024;8.366;2024-01-25T12:20:35;11.40;99.90
33067;DHT22;19428;49.024;8.366;2024-01-25T12:23:01;11.30;99.90
33067;DHT22;19428;49.024;8.366;2024-01-25T12:25:27;11.30;99.90
33067;DHT22;19428;49.024;8.366;2024-01-25T12:27:53;11.30;99.90
33067;DHT22;19428;49.024;8.366;2024-01-25T12:30:19;11.30;99.90
33067;DHT22;19428;49.024;8.366;2024-01-25T12:32:48;11.30;99.90
33067;DHT22;19428;49.024;8.366;2024-01-25T12:35:14;11.50;99.90
33067;DHT22;19428;49.024;8.366;2024-01-25T12:37:40;11.70;99.90
33067;DHT22;19428;49.024;8.366;2024-01-25T12:40:06;11.70;99.90
33067;DHT22;19428;49.024;8.366;2024-01-25T12:42:33;11.60;99.90
33067;DHT22;19428;49.024;8.366;2024-01-25T12:44:59;11.70;99.90
33067;DHT22;19428;49.024;8.366;2024-01-25T12:47:25;11.90;98.00
33067;DHT22;19428;49.024;8.366;2024-01-25T12:49:51;11.80;93.20
33067;DHT22;19428;49.024;8.366;2024-01-25T12:52:16;11.80;90.30
33067;DHT22;19428;49.024;8.366;2024-01-25T12:54:43;12.00;93.10
33067;DHT22;19428;49.024;8.366;2024-01-25T12:57:08;12.00;82.40
33067;DHT22;19428;49.024;8.366;2024-01-25T12:59:35;11.90;81.90
33067;DHT22;19428;49.024;8.366;2024-01-25T13:02:01;11.70;91.00
33067;DHT22;19428;49.024;8.366;2024-01-25T13:04:27;11.70;87.90
33067;DHT22;19428;49.024;8.366;2024-01-25T13:06:54;11.60;92.40
33067;DHT22;19428;49.024;8.366;2024-01-25T13:09:21;11.70;96.20
33067;DHT22;19428;49.024;8.366;2024-01-25T13:11:47;11.70;93.60
33067;DHT22;19428;49.024;8.366;2024-01-25T13:14:17;11.60;94.00
33067;DHT22;19428;49.024;8.366;2024-01-25T13:16:43;11.60;96.90
33067;DHT22;19428;49.024;8.366;2024-01-25T13:19:12;11.60;96.50
33067;DHT22;19428;49.024;8.366;2024-01-25T13:21:37;11.70;96.30
33067;DHT22;19428;49.024;8.366;2024-01-25T13:24:04;11.80;96.20
33067;DHT22;19428;49.024;8.366;2024-01-25T13:26:30;11.70;99.90
33067;DHT22;19428;49.024;8.366;2024-01-25T13:28:56;11.70;99.90
33067;DHT22;19428;49.024;8.366;2024-01-25T13:31:22;11.60;99.90
33067;DHT22;19428;49.024;8.366;2024-01-25T13:33:48;11.70;99.90
33067;DHT22;19428;49.024;8.366;2024-01-25T13:36:14;11.60;99.90
33067;DHT22;19428;49.024;8.366;2024-01-25T13:38:43;11.60;99.90
33067;DHT22;19428;49.024;8.366;2024-01-25T13:41:09;11.60;99.90
33067;DHT22;19428;49.024;8.366;2024-01-25T13:43:34;11.70;99.90
33067;DHT22;19428;49.024;8.366;2024-01-25T13:46:00;11.70;99.90
33067;DHT22;19428;49.024;8.366;2024-01-25T13:48:26;11.70;99.90
33067;DHT22;19428;49.024;8.366;2024-01-25T13:50:54;11.70;99.90
33067;DHT22;19428;49.024;8.366;2024-01-25T13:53:19;11.60;99.90
33067;DHT22;19428;49.024;8.366;2024-01-25T13:55:45;11.60;99.90
33067;DHT22;19428;49.024;8.366;2024-01-25T13:58:11;11.60;99.90
33067;DHT22;19428;49.024;8.366;2024-01-25T14:00:37;11.40;99.90
33067;DHT22;19428;49.024;8.366;2024-01-25T14:03:03;11.40;99.90
33067;DHT22;19428;49.024;8.366;2024-01-25T14:05:29;11.40;99.90
33067;DHT22;19428;49.024;8.366;2024-01-25T14:07:57;11.50;99.90
33067;DHT22;19428;49.024;8.366;2024-01-25T14:10:25;11.60;99.90
33067;DHT22;19428;49.024;8.366;2024-01-25T14:12:53;11.50;99.90
33067;DHT22;19428;49.024;8.366;2024-01-25T14:15:18;11.50;99.90
33067;DHT22;19428;49.024;8.366;2024-01-25T14:17:44;11.40;99.90
33067;DHT22;19428;49.024;8.366;2024-01-25T14:20:10;11.40;99.90
33067;DHT22;19428;49.024;8.366;2024-01-25T14:22:37;11.40;99.90
33067;DHT22;19428;49.024;8.366;2024-01-25T14:25:05;11.40;99.90
33067;DHT22;19428;49.024;8.366;2024-01-25T14:27:31;11.40;99.90
33067;DHT22;19428;49.024;8.366;2024-01-25T14:29:58;11.30;99.90
33067;DHT22;19428;49.024;8.366;2024-01-25T14:32:25;11.30;99.90
33067;DHT22;19428;49.024;8.366;2024-01-25T14:34:51;11.30;99.90
33067;DHT22;19428;49.024;8.366;2024-01-25T14:37:17;11.20;99.90
33067;DHT22;19428;49.024;8.366;2024-01-25T14:39:42;11.40;99.90
33067;DHT22;19428;49.024;8.366;2024-01-25T14:42:11;11.30;99.90
33067;DHT22;19428;49.024;8.366;2024-01-25T14:44:38;11.30;99.90
33067;DHT22;19428;49.024;8.366;2024-01-25T14:47:04;11.40;99.90
33067;DHT22;19428;49.024;8.366;2024-01-25T14:49:29;11.30;99.90
33067;DHT22;19428;49.024;8.366;2024-01-25T14:51:55;11.20;99.90
33067;DHT22;19428;49.024;8.366;2024-01-25T14:54:21;11.20;99.90
33067;DHT22;19428;49.024;8.366;2024-01-25T14:56:46;11.10;99.90
33067;DHT22;19428;49.024;8.366;2024-01-25T14:59:15;11.10;99.90
33067;DHT22;19428;49.024;8.366;2024-01-25T15:01:41;11.10;99.90
33067;DHT22;19428;49.024;8.366;2024-01-25T15:04:08;10.90;99.90
33067;DHT22;19428;49.024;8.366;2024-01-25T15:06:33;11.00;99.90
33067;DHT22;19428;49.024;8.366;2024-01-25T15:08:59;11.00;99.90
33067;DHT22;19428;49.024;8.366;2024-01-25T15:11:24;11.00;99.90
33067;DHT22;19428;49.024;8.366;2024-01-25T15:13:50;10.90;99.90
33067;DHT22;19428;49.024;8.366;2024-01-25T15:16:16;10.80;99.90
33067;DHT22;19428;49.024;8.366;2024-01-25T15:18:41;10.60;99.90
33067;DHT22;19428;49.024;8.366;2024-01-25T15:21:07;10.60;99.90
33067;DHT22;19428;49.024;8.366;2024-01-25T15:23:33;10.50;99.90
33067;DHT22;19428;49.024;8.366;2024-01-25T15:25:58;10.50;99.90
33067;DHT22;19428;49.024;8.366;2024-01-25T15:28:24;10.40;99.90
33067;DHT22;19428;49.024;8.366;2024-01-25T15:30:49;10.30;99.90
33067;DHT22;19428;49.024;8.366;2024-01-25T15:33:15;10.30;99.90
33067;DHT22;19428;49.024;8.366;2024-01-25T15:35:41;10.20;99.90
33067;DHT22;19428;49.024;8.366;2024-01-25T15:38:06;10.20;99.90